Time;durP1;ratioP1;P1;durP2;ratioP2;P2;SDS_P1;SDS_P2;PMS_P1;PMS_P2;Temp;Humidity;BMP_temperature;BMP_pressure;BME280_temperature;BME280_humidity;BME280_pressure;Samples;Min_cycle;Max_cycle;Signal;HPM_P1;HPM_P2
2022/07/17 00:02:17;;;;;;;;;;;;;;;24.10;32.63;100448.69;4297476;33;20001;-81
2022/07/17 00:04:45;;;;;;;;;;;;;;;24.08;32.38;100452.28;4296604;32;19988;-79
2022/07/17 00:07:11;;;;;;;;;;;;;;;24.21;31.76;100455.44;4304628;33;20032;-80
2022/07/17 00:09:39;;;;;;;;;;;;;;;24.03;32.38;100462.16;4296921;33;20044;-80
2022/07/17 00:12:06;;;;;;;;;;;;;;;23.96;32.92;100456.16;4300820;33;19977;-80
2022/07/17 00:14:33;;;;;;;;;;;;;;;23.89;33.21;100465.19;4320256;33;20096;-80
2022/07/17 00:16:59;;;;;;;;;;;;;;;23.91;33.36;100463.38;4322135;33;20043;-80
2022/07/17 00:19:27;;;;;;;;;;;;;;;23.77;33.29;100465.53;4309724;33;20110;-81
2022/07/17 00:21:54;;;;;;;;;;;;;;;23.85;33.54;100468.81;4304081;33;20004;-81
2022/07/17 00:24:20;;;;;;;;;;;;;;;23.87;33.57;100472.31;4296880;33;20040;-80
2022/07/17 00:26:48;;;;;;;;;;;;;;;23.69;33.69;100467.53;4305824;32;20334;-81
2022/07/17 00:29:15;;;;;;;;;;;;;;;23.60;34.09;100477.41;4323862;33;19980;-79
2022/07/17 00:31:42;;;;;;;;;;;;;;;23.61;33.80;100473.88;4323635;33;20052;-79
2022/07/17 00:34:09;;;;;;;;;;;;;;;23.59;34.23;100482.75;4317895;33;19980;-82
2022/07/17 00:36:36;;;;;;;;;;;;;;;23.56;34.18;100478.41;4335789;32;19988;-79
2022/07/17 00:39:03;;;;;;;;;;;;;;;23.51;34.60;100477.66;4330508;33;19994;-80
2022/07/17 00:41:30;;;;;;;;;;;;;;;23.50;35.34;100483.84;4310566;33;20307;-85
2022/07/17 00:44:03;;;;;;;;;;;;;;;23.35;35.30;100484.25;4311230;33;19984;-81
2022/07/17 00:46:31;;;;;;;;;;;;;;;23.46;34.77;100492.78;4311726;33;20077;-80
2022/07/17 00:48:57;;;;;;;;;;;;;;;23.18;35.59;100482.91;4318466;33;19991;-80
2022/07/17 00:51:24;;;;;;;;;;;;;;;23.12;36.25;100482.22;4336482;33;20002;-80
2022/07/17 00:53:52;;;;;;;;;;;;;;;23.18;35.66;100492.62;4336567;33;19988;-79
2022/07/17 00:56:20;;;;;;;;;;;;;;;23.15;35.79;100488.28;4334492;32;20068;-83
2022/07/17 00:58:50;;;;;;;;;;;;;;;23.08;35.73;100491.97;4309975;32;20341;-80
2022/07/17 01:01:19;;;;;;;;;;;;;;;23.07;35.40;100498.19;4325312;32;20000;-79
2022/07/17 01:03:46;;;;;;;;;;;;;;;23.08;35.75;100496.41;4320728;33;20003;-80
2022/07/17 01:06:12;;;;;;;;;;;;;;;23.08;35.73;100502.56;4331113;32;19976;-79
2022/07/17 01:08:40;;;;;;;;;;;;;;;23.01;36.08;100503.62;4326136;33;20044;-79
2022/07/17 01:11:07;;;;;;;;;;;;;;;23.02;35.56;100497.41;4310865;33;20323;-86
2022/07/17 01:13:34;;;;;;;;;;;;;;;23.11;35.70;100507.75;4315097;33;20770;-80
2022/07/17 01:16:02;;;;;;;;;;;;;;;22.82;36.54;100502.28;4325054;33;20306;-79
2022/07/17 01:18:29;;;;;;;;;;;;;;;22.90;36.24;100503.81;4320731;33;20035;-80
2022/07/17 01:20:55;;;;;;;;;;;;;;;22.98;35.20;100506.31;4310714;33;19989;-80
2022/07/17 01:23:24;;;;;;;;;;;;;;;22.84;36.50;100508.37;4311186;33;20012;-79
2022/07/17 01:25:50;;;;;;;;;;;;;;;22.81;36.40;100509.31;4318675;32;19972;-81
2022/07/17 01:28:17;;;;;;;;;;;;;;;22.73;36.86;100517.44;4325263;33;19979;-80
2022/07/17 01:30:46;;;;;;;;;;;;;;;22.60;36.93;100512.47;4320210;33;20281;-80
2022/07/17 01:33:13;;;;;;;;;;;;;;;22.63;36.55;100508.00;4311139;33;19980;-79
2022/07/17 01:35:39;;;;;;;;;;;;;;;22.59;36.96;100519.53;4310201;33;20000;-79
2022/07/17 01:38:07;;;;;;;;;;;;;;;22.61;36.76;100517.69;4320171;33;19984;-87
2022/07/17 01:40:34;;;;;;;;;;;;;;;22.44;37.31;100519.88;4319645;33;19976;-80
2022/07/17 01:43:01;;;;;;;;;;;;;;;22.51;36.71;100521.47;4325051;33;20078;-79
2022/07/17 01:45:28;;;;;;;;;;;;;;;22.54;36.98;100520.53;4323572;33;20032;-79
2022/07/17 01:47:55;;;;;;;;;;;;;;;22.64;36.67;100525.56;4329233;33;19980;-80
2022/07/17 01:50:21;;;;;;;;;;;;;;;22.47;36.82;100535.63;4324644;32;19987;-79
2022/07/17 01:52:48;;;;;;;;;;;;;;;22.49;37.15;100524.16;3740206;32;10001107;-79
2022/07/17 01:55:15;;;;;;;;;;;;;;;22.35;37.58;100520.06;4318496;32;19976;-79
2022/07/17 01:57:43;;;;;;;;;;;;;;;22.27;38.04;100523.72;4318006;33;20058;-79
2022/07/17 02:00:11;;;;;;;;;;;;;;;22.31;37.59;100528.94;4310781;33;19972;-79
2022/07/17 02:02:39;;;;;;;;;;;;;;;22.31;37.66;100534.22;4321009;32;19996;-80
2022/07/17 02:05:07;;;;;;;;;;;;;;;22.29;37.54;100536.88;4318663;33;19999;-80
2022/07/17 02:07:36;;;;;;;;;;;;;;;22.22;37.27;100541.41;4298192;33;866431;-81
2022/07/17 02:10:03;;;;;;;;;;;;;;;22.33;36.49;100542.94;4326811;32;20291;-79
2022/07/17 02:12:30;;;;;;;;;;;;;;;22.24;36.86;100542.25;4331836;32;20062;-80
2022/07/17 02:14:57;;;;;;;;;;;;;;;22.22;36.93;100551.97;4315300;33;20044;-79
2022/07/17 02:17:24;;;;;;;;;;;;;;;22.22;37.16;100546.69;4326414;32;19991;-80
2022/07/17 02:19:51;;;;;;;;;;;;;;;22.10;37.78;100552.16;4318126;32;20071;-88
2022/07/17 02:22:17;;;;;;;;;;;;;;;22.09;37.30;100554.84;4314035;32;20610;-80
2022/07/17 02:24:44;;;;;;;;;;;;;;;22.12;37.21;100566.19;4316494;33;20351;-79
2022/07/17 02:27:11;;;;;;;;;;;;;;;21.90;38.20;100562.25;4319221;32;20171;-79
2022/07/17 02:29:38;;;;;;;;;;;;;;;22.00;37.73;100576.97;4313074;33;19991;-81
2022/07/17 02:32:05;;;;;;;;;;;;;;;21.88;37.54;100571.94;4317826;33;19991;-79
2022/07/17 02:34:33;;;;;;;;;;;;;;;21.62;37.95;100575.91;4313977;33;19988;-79
2022/07/17 02:37:00;;;;;;;;;;;;;;;21.81;36.98;100572.03;4316225;33;20058;-80
2022/07/17 02:39:27;;;;;;;;;;;;;;;21.72;37.66;100571.34;4316918;33;20098;-79
2022/07/17 02:41:54;;;;;;;;;;;;;;;21.72;37.72;100569.56;4312355;33;20043;-79
2022/07/17 02:44:21;;;;;;;;;;;;;;;21.63;37.96;100577.66;4311718;33;20043;-79
2022/07/17 02:46:49;;;;;;;;;;;;;;;21.78;37.49;100582.66;4311522;32;20358;-79
2022/07/17 02:49:16;;;;;;;;;;;;;;;21.71;37.86;100575.75;4312802;33;19977;-79
2022/07/17 02:51:42;;;;;;;;;;;;;;;21.72;37.86;100574.84;4320009;33;20444;-87
2022/07/17 02:54:09;;;;;;;;;;;;;;;21.55;37.99;100574.28;4326662;33;20431;-79
2022/07/17 02:56:36;;;;;;;;;;;;;;;21.57;37.83;100578.66;4320590;32;20466;-79
2022/07/17 02:59:03;;;;;;;;;;;;;;;21.57;38.08;100583.06;4314527;33;19987;-79
2022/07/17 03:01:30;;;;;;;;;;;;;;;21.59;37.75;100581.22;4312023;33;19996;-81
2022/07/17 03:03:58;;;;;;;;;;;;;;;21.50;38.15;100589.28;4310551;33;19985;-79
2022/07/17 03:06:25;;;;;;;;;;;;;;;21.44;38.07;100587.66;4319841;33;20333;-79
2022/07/17 03:08:52;;;;;;;;;;;;;;;21.31;38.80;100579.06;4312121;33;19976;-80
2022/07/17 03:11:19;;;;;;;;;;;;;;;21.45;38.38;100592.03;4311490;33;19999;-79
2022/07/17 03:13:48;;;;;;;;;;;;;;;21.28;38.26;100592.25;4318027;33;20014;-80
2022/07/17 03:16:15;;;;;;;;;;;;;;;21.33;38.41;100590.41;4300449;32;19980;-80
2022/07/17 03:18:43;;;;;;;;;;;;;;;21.46;38.10;100590.25;4331577;33;20031;-80
2022/07/17 03:21:10;;;;;;;;;;;;;;;21.34;38.21;100592.13;4312421;33;20041;-80
2022/07/17 03:23:37;;;;;;;;;;;;;;;21.27;38.51;100598.41;4312188;33;19976;-80
2022/07/17 03:26:04;;;;;;;;;;;;;;;21.28;38.25;100602.81;4003141;32;10003962;-80
2022/07/17 03:28:31;;;;;;;;;;;;;;;21.17;38.78;100612.63;4303553;33;20011;-82
2022/07/17 03:30:58;;;;;;;;;;;;;;;21.25;38.54;100623.91;4303144;33;20028;-80
2022/07/17 03:33:24;;;;;;;;;;;;;;;21.33;38.37;100616.75;4300827;32;20054;-80
2022/07/17 03:35:51;;;;;;;;;;;;;;;21.10;39.10;100621.50;4299674;33;19988;-80
2022/07/17 03:38:18;;;;;;;;;;;;;;;21.22;38.90;100623.97;4305151;33;20555;-80
2022/07/17 03:40:45;;;;;;;;;;;;;;;21.20;38.88;100620.47;4297200;33;19987;-79
2022/07/17 03:43:13;;;;;;;;;;;;;;;20.94;40.10;100628.75;4308241;33;19988;-80
2022/07/17 03:45:40;;;;;;;;;;;;;;;20.95;40.18;100625.22;4314536;33;19983;-80
2022/07/17 03:48:07;;;;;;;;;;;;;;;20.93;40.30;100631.38;4298312;33;19992;-79
2022/07/17 03:50:34;;;;;;;;;;;;;;;20.76;40.93;100632.47;4297390;33;20020;-79
2022/07/17 03:53:01;;;;;;;;;;;;;;;20.76;41.21;100637.75;4298619;33;20082;-79
2022/07/17 03:55:28;;;;;;;;;;;;;;;20.81;40.98;100638.56;4303663;33;20394;-80
2022/07/17 03:57:55;;;;;;;;;;;;;;;20.86;40.83;100636.72;4297201;33;19980;-80
2022/07/17 04:00:22;;;;;;;;;;;;;;;20.90;40.96;100638.44;4308283;33;19976;-80
2022/07/17 04:02:49;;;;;;;;;;;;;;;20.90;40.83;100638.44;4296925;33;20397;-79
2022/07/17 04:05:16;;;;;;;;;;;;;;;21.05;40.74;100652.28;4296826;33;20001;-79
2022/07/17 04:07:43;;;;;;;;;;;;;;;20.95;41.05;100653.31;4305078;33;19994;-80
2022/07/17 04:10:12;;;;;;;;;;;;;;;21.05;40.88;100652.28;4296829;33;19980;-80
2022/07/17 04:12:39;;;;;;;;;;;;;;;21.00;41.07;100659.38;4307854;33;19986;-80
2022/07/17 04:15:07;;;;;;;;;;;;;;;21.03;41.01;100660.22;4301650;33;20094;-79
2022/07/17 04:17:34;;;;;;;;;;;;;;;21.16;40.38;100658.28;4299958;33;19981;-78
2022/07/17 04:20:01;;;;;;;;;;;;;;;21.15;40.33;100659.16;4315867;33;20035;-78
2022/07/17 04:22:28;;;;;;;;;;;;;;;21.21;40.04;100663.47;4304949;33;20040;-78
2022/07/17 04:24:55;;;;;;;;;;;;;;;20.96;40.85;100662.94;4307472;33;19980;-78
2022/07/17 04:27:22;;;;;;;;;;;;;;;21.18;37.88;100666.12;4304949;33;20039;-79
2022/07/17 04:29:48;;;;;;;;;;;;;;;21.14;38.40;100670.59;4308963;33;20211;-80
2022/07/17 04:32:15;;;;;;;;;;;;;;;21.27;38.28;100664.25;4302149;33;19980;-80
2022/07/17 04:34:42;;;;;;;;;;;;;;;21.24;38.36;100663.41;4298765;33;20335;-79
2022/07/17 04:37:09;;;;;;;;;;;;;;;21.37;38.02;100670.28;4303118;32;20002;-79
2022/07/17 04:39:37;;;;;;;;;;;;;;;21.47;37.71;100671.00;4307625;33;19972;-79
2022/07/17 04:42:04;;;;;;;;;;;;;;;21.40;38.33;100675.50;4311826;33;20000;-79
2022/07/17 04:44:31;;;;;;;;;;;;;;;21.47;37.65;100681.53;4309726;33;20554;-79
2022/07/17 04:46:58;;;;;;;;;;;;;;;21.39;37.92;100680.81;4303071;33;19999;-80
2022/07/17 04:49:25;;;;;;;;;;;;;;;21.39;37.33;100683.44;4296975;33;19993;-80
2022/07/17 04:51:52;;;;;;;;;;;;;;;21.42;37.93;100688.66;4297747;33;20092;-78
2022/07/17 04:54:19;;;;;;;;;;;;;;;21.35;37.56;100690.53;4303636;33;19998;-79
2022/07/17 04:56:46;;;;;;;;;;;;;;;21.50;37.12;100692.03;4296586;33;20004;-79
2022/07/17 04:59:13;;;;;;;;;;;;;;;21.55;37.09;100695.47;4304440;33;20048;-78
2022/07/17 05:01:40;;;;;;;;;;;;;;;21.39;37.98;100693.97;4296799;33;19980;-81
2022/07/17 05:04:07;;;;;;;;;;;;;;;21.48;36.75;100691.22;4298768;33;20035;-79
2022/07/17 05:06:34;;;;;;;;;;;;;;;21.33;37.74;100701.03;4302332;33;20030;-79
2022/07/17 05:09:01;;;;;;;;;;;;;;;21.52;36.91;100700.78;3713940;33;10000682;-81
2022/07/17 05:11:28;;;;;;;;;;;;;;;21.58;37.30;100695.44;4309747;33;20032;-80
2022/07/17 05:13:55;;;;;;;;;;;;;;;21.68;37.44;100697.03;4303548;33;20006;-78
2022/07/17 05:16:22;;;;;;;;;;;;;;;21.58;37.12;100700.72;4299573;33;20398;-79
2022/07/17 05:18:49;;;;;;;;;;;;;;;21.50;37.76;100705.19;4303821;33;19981;-78
2022/07/17 05:21:16;;;;;;;;;;;;;;;21.60;37.61;100704.16;4296756;33;19984;-78
2022/07/17 05:23:43;;;;;;;;;;;;;;;21.87;36.47;100707.28;4303347;33;19973;-79
2022/07/17 05:26:10;;;;;;;;;;;;;;;21.73;36.96;100703.09;4320812;32;20047;-85
2022/07/17 05:28:37;;;;;;;;;;;;;;;21.85;36.68;100703.78;4312888;33;20011;-81
2022/07/17 05:31:05;;;;;;;;;;;;;;;21.78;37.20;100709.16;4310244;33;19983;-80
2022/07/17 05:33:32;;;;;;;;;;;;;;;21.66;37.29;100706.72;4314516;33;19972;-80
2022/07/17 05:36:00;;;;;;;;;;;;;;;21.57;37.95;100714.78;4333438;33;20050;-79
2022/07/17 05:38:27;;;;;;;;;;;;;;;21.50;38.23;100708.69;4310408;33;19980;-86
2022/07/17 05:40:54;;;;;;;;;;;;;;;21.73;37.50;100716.28;4310612;33;20085;-79
2022/07/17 05:43:21;;;;;;;;;;;;;;;21.78;37.68;100714.44;4313822;33;19999;-79
2022/07/17 05:45:48;;;;;;;;;;;;;;;21.92;37.73;100710.69;4321766;33;19987;-79
2022/07/17 05:48:14;;;;;;;;;;;;;;;21.95;37.64;100705.37;4324240;33;20000;-80
2022/07/17 05:50:41;;;;;;;;;;;;;;;22.01;37.93;100707.91;4337496;32;20850;-79
2022/07/17 05:53:09;;;;;;;;;;;;;;;21.86;37.60;100710.78;4326731;33;20043;-79
2022/07/17 05:55:36;;;;;;;;;;;;;;;21.89;37.54;100710.75;4325513;33;19998;-80
2022/07/17 05:58:03;;;;;;;;;;;;;;;21.99;36.85;100712.34;4310663;33;20008;-80
2022/07/17 06:00:30;;;;;;;;;;;;;;;22.05;37.08;100710.47;4312585;33;20039;-80
2022/07/17 06:02:57;;;;;;;;;;;;;;;22.15;37.20;100712.97;4323091;33;19976;-80
2022/07/17 06:05:26;;;;;;;;;;;;;;;21.99;38.14;100712.34;4311577;33;20357;-82
2022/07/17 06:07:53;;;;;;;;;;;;;;;22.34;36.29;100713.53;4324677;33;20000;-79
2022/07/17 06:10:20;;;;;;;;;;;;;;;22.38;36.74;100712.56;4326590;33;20397;-78
2022/07/17 06:12:47;;;;;;;;;;;;;;;22.49;35.80;100726.41;4320723;33;20548;-78
2022/07/17 06:15:14;;;;;;;;;;;;;;;22.04;37.11;100718.41;4311904;33;20410;-78
2022/07/17 06:17:41;;;;;;;;;;;;;;;22.65;35.30;100719.94;4325203;33;19998;-80
2022/07/17 06:20:10;;;;;;;;;;;;;;;22.88;34.36;100721.28;4317589;33;20408;-79
2022/07/17 06:22:37;;;;;;;;;;;;;;;22.90;34.67;100730.03;4312245;33;20027;-79
2022/07/17 06:25:04;;;;;;;;;;;;;;;23.25;33.70;100726.66;4313659;33;19988;-78
2022/07/17 06:27:31;;;;;;;;;;;;;;;23.38;33.90;100728.13;4318193;33;20059;-78
2022/07/17 06:29:57;;;;;;;;;;;;;;;23.83;32.99;100720.06;4311918;33;20000;-77
2022/07/17 06:32:25;;;;;;;;;;;;;;;24.05;32.26;100723.03;4317733;33;20018;-78
2022/07/17 06:34:51;;;;;;;;;;;;;;;24.31;31.87;100726.78;4324531;33;20040;-78
2022/07/17 06:37:18;;;;;;;;;;;;;;;24.73;31.00;100729.19;4326215;33;20011;-78
2022/07/17 06:39:45;;;;;;;;;;;;;;;24.80;31.38;100729.00;4316348;32;20618;-79
2022/07/17 06:42:12;;;;;;;;;;;;;;;25.16;29.66;100733.28;4312563;32;20023;-79
2022/07/17 06:44:39;;;;;;;;;;;;;;;25.50;28.92;100734.00;4312082;33;19992;-79
2022/07/17 06:47:06;;;;;;;;;;;;;;;25.33;28.91;100738.94;4320121;33;19980;-79
2022/07/17 06:49:33;;;;;;;;;;;;;;;25.54;28.77;100733.91;4319421;33;19999;-79
2022/07/17 06:51:59;;;;;;;;;;;;;;;25.81;29.04;100733.03;4309629;32;20013;-79
2022/07/17 06:54:27;;;;;;;;;;;;;;;25.99;28.63;100736.88;4316337;33;19995;-79
2022/07/17 06:56:53;;;;;;;;;;;;;;;26.10;28.66;100728.53;4320467;33;20012;-80
2022/07/17 06:59:20;;;;;;;;;;;;;;;26.41;27.32;100729.22;4014310;32;10004072;-80
2022/07/17 07:01:47;;;;;;;;;;;;;;;26.54;26.97;100734.12;4340045;32;20262;-80
2022/07/17 07:04:14;;;;;;;;;;;;;;;26.71;26.45;100726.44;4303896;33;21455;-82
2022/07/17 07:06:42;;;;;;;;;;;;;;;26.65;26.58;100726.66;4323775;33;20244;-79
2022/07/17 07:09:11;;;;;;;;;;;;;;;26.96;26.12;100726.38;4340769;32;20004;-79
2022/07/17 07:11:42;;;;;;;;;;;;;;;27.09;25.65;100737.41;4315494;32;20010;-80
2022/07/17 07:14:09;;;;;;;;;;;;;;;27.27;24.36;100726.09;4293995;33;19973;-78
2022/07/17 07:16:36;;;;;;;;;;;;;;;27.51;24.11;100728.75;4320185;33;20306;-78
2022/07/17 07:19:03;;;;;;;;;;;;;;;27.62;23.07;100731.81;4319030;33;20024;-80
2022/07/17 07:21:30;;;;;;;;;;;;;;;27.92;21.85;100723.53;4290781;33;19996;-79
2022/07/17 07:23:57;;;;;;;;;;;;;;;27.95;22.34;100731.38;4282970;33;20037;-79
2022/07/17 07:26:24;;;;;;;;;;;;;;;28.27;21.10;100730.91;4290543;33;19992;-84
2022/07/17 07:28:51;;;;;;;;;;;;;;;27.99;22.67;100738.34;4282914;33;20876;-80
2022/07/17 07:31:18;;;;;;;;;;;;;;;28.31;21.56;100730.78;4282162;33;20473;-80
2022/07/17 07:33:46;;;;;;;;;;;;;;;28.08;21.55;100731.75;4288810;33;19972;-84
2022/07/17 07:36:13;;;;;;;;;;;;;;;28.29;21.00;100734.34;4307978;33;20171;-80
2022/07/17 07:38:45;;;;;;;;;;;;;;;28.14;21.66;100735.00;4288998;33;20027;-80
2022/07/17 07:41:12;;;;;;;;;;;;;;;28.60;18.62;100730.38;4305105;33;19996;-78
2022/07/17 07:43:39;;;;;;;;;;;;;;;28.23;20.44;100729.28;4282715;33;20056;-82
2022/07/17 07:46:06;;;;;;;;;;;;;;;28.55;20.04;100732.37;4288915;33;20013;-84
2022/07/17 07:48:33;;;;;;;;;;;;;;;28.42;21.96;100728.53;4307851;33;19992;-84
2022/07/17 07:51:01;;;;;;;;;;;;;;;28.86;19.99;100723.03;4287862;33;20055;-84
2022/07/17 07:53:27;;;;;;;;;;;;;;;28.54;22.87;100738.66;4281516;33;19992;-86
2022/07/17 07:55:55;;;;;;;;;;;;;;;28.87;20.30;100730.06;4281497;33;19997;-85
2022/07/17 07:58:21;;;;;;;;;;;;;;;28.84;21.55;100724.87;4285438;33;20036;-84
2022/07/17 08:00:48;;;;;;;;;;;;;;;29.00;19.69;100735.69;4291726;33;20387;-84
2022/07/17 08:03:15;;;;;;;;;;;;;;;28.32;21.32;100743.16;4296126;33;19980;-84
2022/07/17 08:05:50;;;;;;;;;;;;;;;28.76;20.88;100727.03;4292040;33;20020;-83
2022/07/17 08:08:17;;;;;;;;;;;;;;;29.06;20.49;100738.97;4297152;33;19973;-83
2022/07/17 08:10:53;;;;;;;;;;;;;;;28.96;20.23;100742.97;4279369;33;10004219;-84
2022/07/17 08:13:20;;;;;;;;;;;;;;;28.92;20.52;100744.06;4339143;33;20489;-85
2022/07/17 08:15:47;;;;;;;;;;;;;;;28.68;22.78;100741.56;4340999;33;19986;-84
2022/07/17 08:18:13;;;;;;;;;;;;;;;28.67;22.89;100737.16;4340882;33;19984;-84
2022/07/17 08:20:40;;;;;;;;;;;;;;;29.41;20.10;100741.78;4309205;32;20274;-87
2022/07/17 08:23:08;;;;;;;;;;;;;;;29.37;20.39;100740.22;4306592;33;19999;-84
2022/07/17 08:25:35;;;;;;;;;;;;;;;29.66;19.37;100745.03;4297117;33;20036;-85
2022/07/17 08:28:04;;;;;;;;;;;;;;;29.40;19.43;100742.75;4319242;33;19980;-85
2022/07/17 08:30:34;;;;;;;;;;;;;;;29.25;19.91;100746.13;4302866;33;20350;-86
2022/07/17 08:33:03;;;;;;;;;;;;;;;28.98;19.77;100738.44;4292831;33;19992;-86
2022/07/17 08:35:30;;;;;;;;;;;;;;;29.17;20.10;100749.16;4293028;33;19996;-85
2022/07/17 08:37:56;;;;;;;;;;;;;;;29.22;19.71;100746.28;4286111;33;20002;-86
2022/07/17 08:40:38;;;;;;;;;;;;;;;28.79;21.10;100742.91;4290579;33;19980;-86
2022/07/17 08:43:06;;;;;;;;;;;;;;;29.31;20.49;100735.16;4296772;33;19985;-86
2022/07/17 08:45:33;;;;;;;;;;;;;;;29.44;19.81;100736.31;4303089;33;20004;-86
2022/07/17 08:48:00;;;;;;;;;;;;;;;29.50;19.81;100741.34;4295965;33;19989;-84
2022/07/17 08:50:29;;;;;;;;;;;;;;;29.57;20.27;100742.78;4292970;33;19991;-84
2022/07/17 08:52:57;;;;;;;;;;;;;;;29.90;20.10;100739.44;4300429;33;19981;-84
2022/07/17 08:55:23;;;;;;;;;;;;;;;29.83;20.42;100748.66;4289880;33;20390;-81
2022/07/17 08:57:50;;;;;;;;;;;;;;;30.12;19.62;100745.44;4282902;33;19988;-82
2022/07/17 09:00:20;;;;;;;;;;;;;;;30.28;19.72;100739.31;4288727;33;20358;-81
2022/07/17 09:02:53;;;;;;;;;;;;;;;30.21;20.14;100748.59;4285127;33;20755;-85
2022/07/17 09:05:22;;;;;;;;;;;;;;;30.07;20.29;100736.78;4282377;33;20377;-84
2022/07/17 09:07:49;;;;;;;;;;;;;;;30.10;20.10;100731.28;4299660;33;19984;-83
2022/07/17 09:10:16;;;;;;;;;;;;;;;30.12;21.48;100740.09;4282882;33;19977;-84
2022/07/17 09:12:44;;;;;;;;;;;;;;;30.62;19.78;100743.75;4292379;33;20003;-82
2022/07/17 09:15:15;;;;;;;;;;;;;;;30.40;20.13;100735.16;4292148;33;20690;-84
2022/07/17 09:17:51;;;;;;;;;;;;;;;30.80;19.00;100737.47;4289865;33;19985;-83
2022/07/17 09:20:20;;;;;;;;;;;;;;;30.02;19.96;100733.47;4282806;32;19991;-84
2022/07/17 09:23:00;;;;;;;;;;;;;;;30.35;19.53;100727.38;4294421;33;20070;-85
2022/07/17 09:25:37;;;;;;;;;;;;;;;30.53;20.52;100729.06;4294654;33;19984;-85
2022/07/17 09:28:05;;;;;;;;;;;;;;;30.64;18.20;100723.16;4307940;32;20003;-84
2022/07/17 09:30:32;;;;;;;;;;;;;;;30.51;18.60;100738.13;4307169;33;20320;-85
2022/07/17 09:32:59;;;;;;;;;;;;;;;30.58;18.65;100727.03;4302948;33;20311;-84
2022/07/17 09:35:27;;;;;;;;;;;;;;;30.65;19.69;100726.69;4296702;33;20000;-85
2022/07/17 09:37:54;;;;;;;;;;;;;;;30.94;18.91;100726.00;4303655;32;19992;-85
2022/07/17 09:43:14;;;;;;;;;;;;;;;30.87;19.05;100721.97;4304641;33;20007;-84
2022/07/17 09:45:41;;;;;;;;;;;;;;;31.13;18.70;100717.00;4304165;33;20059;-84
2022/07/17 09:48:07;;;;;;;;;;;;;;;30.78;19.59;100703.75;4309633;33;20001;-81
2022/07/17 09:50:35;;;;;;;;;;;;;;;30.67;20.88;100714.13;4311359;32;19979;-84
2022/07/17 09:53:02;;;;;;;;;;;;;;;30.94;19.18;100711.78;4335742;32;19984;-84
2022/07/17 09:55:30;;;;;;;;;;;;;;;30.80;18.02;100715.22;4318913;33;19992;-83
2022/07/17 09:58:15;;;;;;;;;;;;;;;31.13;17.72;100711.63;4325174;33;19992;-82
2022/07/17 10:00:41;;;;;;;;;;;;;;;30.38;19.78;100719.22;4329398;33;20003;-85
2022/07/17 10:03:09;;;;;;;;;;;;;;;30.68;18.46;100710.50;4320679;33;20370;-87
2022/07/17 10:05:35;;;;;;;;;;;;;;;30.15;20.82;100716.81;4321024;33;19992;-84
2022/07/17 10:08:12;;;;;;;;;;;;;;;30.39;19.40;100704.91;4319923;32;19987;-83
2022/07/17 10:10:39;;;;;;;;;;;;;;;30.36;19.10;100713.06;4334967;33;20023;-84
2022/07/17 10:13:06;;;;;;;;;;;;;;;30.55;19.99;100716.50;4335506;33;19988;-85
2022/07/17 10:15:33;;;;;;;;;;;;;;;30.52;20.83;100714.00;4330735;33;19988;-83
2022/07/17 10:18:04;;;;;;;;;;;;;;;30.74;17.65;100704.81;4326208;33;20378;-83
2022/07/17 10:20:32;;;;;;;;;;;;;;;30.87;18.27;100719.28;4318050;33;20442;-84
2022/07/17 10:22:59;;;;;;;;;;;;;;;30.77;17.53;100723.41;4320759;33;20003;-84
2022/07/17 10:25:26;;;;;;;;;;;;;;;30.28;18.84;100713.47;4320959;33;20000;-83
2022/07/17 10:27:53;;;;;;;;;;;;;;;30.23;20.92;100709.31;4320439;33;20002;-83
2022/07/17 10:30:26;;;;;;;;;;;;;;;30.79;18.02;100702.78;4311828;32;20651;-84
2022/07/17 10:32:58;;;;;;;;;;;;;;;30.90;17.13;100696.88;4312364;33;19980;-83
2022/07/17 10:35:26;;;;;;;;;;;;;;;30.76;17.79;100697.56;4319803;33;20591;-83
2022/07/17 10:37:53;;;;;;;;;;;;;;;30.62;18.82;100710.81;4318652;33;19975;-83
2022/07/17 10:40:21;;;;;;;;;;;;;;;30.58;19.43;100700.31;4330328;33;20015;-83
2022/07/17 10:42:52;;;;;;;;;;;;;;;30.83;17.99;100699.03;4312434;33;19976;-82
2022/07/17 10:45:20;;;;;;;;;;;;;;;30.75;18.85;100695.84;4320762;32;20002;-82
2022/07/17 10:47:52;;;;;;;;;;;;;;;31.02;17.49;100702.41;4312081;33;20745;-82
2022/07/17 10:50:21;;;;;;;;;;;;;;;30.95;17.18;100698.34;4319182;33;20409;-82
2022/07/17 10:53:06;;;;;;;;;;;;;;;31.08;17.48;100697.66;4313030;33;20029;-82
2022/07/17 10:55:34;;;;;;;;;;;;;;;31.16;19.09;100695.41;4293934;32;19988;-83
2022/07/17 10:58:01;;;;;;;;;;;;;;;31.32;17.59;100693.59;4299067;33;19989;-83
2022/07/17 11:00:31;;;;;;;;;;;;;;;31.49;16.59;100681.94;4303224;33;20741;-82
2022/07/17 11:03:07;;;;;;;;;;;;;;;31.42;16.91;100678.78;4297429;33;20039;-83
2022/07/17 11:05:34;;;;;;;;;;;;;;;31.45;16.16;100691.97;4301778;33;20036;-83
2022/07/17 11:08:02;;;;;;;;;;;;;;;31.01;17.97;100687.28;4300885;33;19992;-83
2022/07/17 11:10:29;;;;;;;;;;;;;;;31.10;17.27;100687.72;4315655;33;20040;-82
2022/07/17 11:13:09;;;;;;;;;;;;;;;30.86;16.92;100676.59;4304699;33;19992;-83
2022/07/17 11:15:40;;;;;;;;;;;;;;;30.40;20.34;100669.22;4317623;33;20002;-84
2022/07/17 11:18:13;;;;;;;;;;;;;;;30.56;17.50;100664.78;4321634;33;20480;-84
2022/07/17 11:21:09;;;;;;;;;;;;;;;30.63;18.14;100669.78;4310279;32;19999;-83
2022/07/17 11:23:37;;;;;;;;;;;;;;;30.88;18.48;100672.88;4317739;33;20002;-83
2022/07/17 11:26:05;;;;;;;;;;;;;;;31.22;16.29;100663.84;4329771;33;20020;-83
2022/07/17 11:28:39;;;;;;;;;;;;;;;30.67;19.80;100671.37;4311623;33;20445;-83
2022/07/17 11:31:32;;;;;;;;;;;;;;;31.13;16.04;100659.00;4322354;32;20339;-84
2022/07/17 11:34:00;;;;;;;;;;;;;;;31.00;16.90;100664.19;4311575;33;20056;-82
2022/07/17 11:36:34;;;;;;;;;;;;;;;31.20;16.65;100665.72;4317648;33;20354;-81
2022/07/17 11:39:02;;;;;;;;;;;;;;;31.24;15.90;100659.28;4328374;33;20027;-81
2022/07/17 11:41:30;;;;;;;;;;;;;;;31.22;16.85;100662.97;4323753;32;19999;-81
2022/07/17 11:43:57;;;;;;;;;;;;;;;30.88;18.12;100659.50;4332991;33;20019;-82
2022/07/17 11:46:24;;;;;;;;;;;;;;;31.10;17.67;100647.63;4323723;32;19996;-82
2022/07/17 11:48:51;;;;;;;;;;;;;;;31.34;15.64;100643.59;4330921;32;20003;-79
2022/07/17 11:51:18;;;;;;;;;;;;;;;31.15;18.26;100640.19;4342840;32;20006;-78
2022/07/17 11:53:45;;;;;;;;;;;;;;;31.35;16.40;100642.62;4318824;33;20020;-78
2022/07/17 11:56:19;;;;;;;;;;;;;;;31.29;16.18;100648.28;4320970;32;20006;-78
2022/07/17 11:58:46;;;;;;;;;;;;;;;30.90;17.77;100630.88;4318576;32;20043;-79
2022/07/17 12:01:14;;;;;;;;;;;;;;;31.21;17.87;100637.19;4309263;32;19984;-79
2022/07/17 12:03:42;;;;;;;;;;;;;;;31.06;16.96;100630.88;4319647;33;20641;-78
2022/07/17 12:06:09;;;;;;;;;;;;;;;31.29;16.19;100634.91;4319537;32;20006;-79
2022/07/17 12:08:36;;;;;;;;;;;;;;;31.28;15.62;100630.53;4320355;33;20009;-78
2022/07/17 12:11:06;;;;;;;;;;;;;;;31.35;15.56;100639.09;4012555;32;10000869;-79
2022/07/17 12:13:52;;;;;;;;;;;;;;;31.67;14.03;100638.06;4329925;33;19976;-78
2022/07/17 12:16:22;;;;;;;;;;;;;;;31.59;14.98;100634.09;4325357;33;20006;-79
2022/07/17 12:19:08;;;;;;;;;;;;;;;31.54;14.00;100626.34;4319713;33;20031;-80
2022/07/17 12:21:46;;;;;;;;;;;;;;;31.68;15.09;100618.34;4311519;33;20007;-80
2022/07/17 12:24:27;;;;;;;;;;;;;;;30.96;17.88;100619.84;4313073;33;19990;-80
2022/07/17 12:26:56;;;;;;;;;;;;;;;31.31;16.09;100619.66;4321315;33;20354;-82
2022/07/17 12:29:26;;;;;;;;;;;;;;;31.44;15.69;100619.81;4328754;32;20054;-81
2022/07/17 12:32:04;;;;;;;;;;;;;;;31.14;19.15;100617.06;4328255;33;19984;-81
2022/07/17 12:34:36;;;;;;;;;;;;;;;31.45;16.54;100622.41;4322698;33;19972;-81
2022/07/17 12:37:04;;;;;;;;;;;;;;;31.47;15.82;100620.50;4321433;33;19992;-81
2022/07/17 12:39:31;;;;;;;;;;;;;;;31.26;17.01;100611.88;4323378;33;19988;-80
2022/07/17 12:41:58;;;;;;;;;;;;;;;31.33;16.90;100612.41;4324705;33;19984;-81
2022/07/17 12:44:25;;;;;;;;;;;;;;;31.41;17.08;100604.81;4321559;33;19991;-81